AirNav   Everest Fuels
 
 553 users online  

WS75 Waupun Memorial Hospital Heliport
Waupun, Wisconsin, USA

GOING TO WAUPUN?


FAA INFORMATION EFFECTIVE 18 JUNE 2020

Location

FAA Identifier: WS75
Lat/Long: 43-37-56.9249N 088-44-47.0229W
43-37.948748N 088-44.783715W
43.6324791,-88.7463952
(estimated)
Elevation: 910 ft. / 277 m (estimated)
Variation: 02W (2000)
Time zone: UTC -5 (UTC -6 during Standard Time)
Zip code: 53963

Heliport Operations

Heliport use: Private use, MEDICAL USE.
Activation date: 08/1998
Control tower: no
ARTCC: CHICAGO CENTER
FSS: GREEN BAY FLIGHT SERVICE STATION
NOTAMs facility: FDC (NOTAM-D service not available)
Attendance: ON CALL
Segmented circle: no
Lights: FOR FLOOD LGTS CALL 920-324-5581.

Heliport Communications

WX AWOS-3 at UNU (12 nm S): 120.825 (920-386-5682)
WX ASOS at FLD (14 nm NE): 134.0 (920-922-4444)

Nearby radio navigation aids

VOR radial/distance  VOR name  Freq  Var
OSHr199/23.0OSHKOSH VORTAC116.7502E
BJBr296/(29.8)WEST BEND VOR109.8001W
BAEr325/36.9BADGER VOR/DME116.4002E
MSNr038/39.1MADISON VORTAC108.6003E
FAHr260/39.8FALLS VOR/DME110.0002W

 
NDB name  Hdg/Dist  Freq  Var  ID
JUNEAU352/12.434401WUNU ..- -. ..-
ROCK RIVER359/27.537101WRYV .-. -.-- ...-

Heliport Services

Runway Information

Helipad H1

Dimensions: 40 x 40 ft. / 12 x 12 m
Surface: concrete
Runway edge lights: FLD
Latitude: 43-37.948748N
Longitude: 088-44.783715W
Elevation: 910.0 ft.
Traffic pattern: leftleft

Heliport Ownership and Management from official FAA records

Ownership: Privately-owned
Owner: WAUPUN MEMORIAL HOSPITAL
620 WEST BROWN STREET
WAUPUN, WI 53963
Phone 920-324-5581
Manager: DAN LOEST
430 DIVISION ST
FOND DU LAC, WI 54935
Phone 920-926-5601

Additional Remarks

FOR CD CTC CHICAGO ARTCC AT 630-906-8921.

Instrument Procedures

There are no published instrument procedures at WS75.

Some nearby airports with instrument procedures:

KUNU - Dodge County Airport (12 nm S)
KFLD - Fond Du Lac County Airport (14 nm NE)
KOSH - Wittman Regional Airport (23 nm N)
KHXF - Hartford Municipal Airport (23 nm SE)
KRYV - Watertown Municipal Airport (28 nm S)
 
Loc | Ops | Rwys | IFR | FBO | Links
Com | Nav | Svcs | Stats | Notes
Area around WS75 (Waupun Memorial Hospital Heliport)
 
Road maps at: MapQuest Bing Google
 
Aerial photo
No photo
 
Sectional chart

 
Airport distance calculator
Flying to Waupun Memorial Hospital Heliport? Find the distance to fly.

From to WS75

Sunrise and sunset
Times for 11-Jul-2020
 Local
(UTC-5)
 Zulu
(UTC)
Morning civil twilight04:5109:51
Sunrise05:2610:26
Sunset20:3501:35
Evening civil twilight21:1002:10

Current date and time
Zulu (UTC)  11-Jul-2020 11:49:51
Local (UTC-5)  11-Jul-2020 06:49:51
 
METAR
KUNU 
13nm S 
111135Z AUTO 00000KT 10SM CLR 19/17 A2991 RMK AO2 T01850172
KFLD 
14nm NE 
111053Z AUTO 18004KT 10SM CLR 18/17 A2990 RMK AO2 SLP119 T01830167 TSNO
KOSH 
22nm NE 
111053Z 27004KT 10SM CLR 19/16 A2988 RMK AO2 SLP106 T01890161
TAF
NOTAMs
Click for the latest NOTAMs
NOTAMs are issued by the DoD/FAA and will open in a separate window not controlled by AirNav.

 

 
 

Would you like to see your business listed on this page?

 If your business provides an interesting product or service to pilots, flight crews, aircraft, or users of the Waupun Memorial Hospital Heliport, you should consider listing it here.  To start the listing process, click on the button below
 
Add a business
 

Other Pages about Waupun Memorial Hospital Heliport

Update a link
 
Copyright © AirNav, LLC. All rights reserved. Privacy Policy  Contact